Startpagina
METAR-TAF:

METAR-TAF

Vliegvelden :

Flughafen Berlin-Tegel

Berlijn, Duitsland

breedte: 52-34N, lengte: 013-19E, hoogte: 37 m

Actueel weer

Dit bericht is 30 minuten geleden gemaakt, om 11:20 UTC
Wind 11 kt uit het oostzuidoosten
Temperatuur 9°C
Vochtigheid 61%
Druk 1035 hPa
Zicht 10 km of meer
geen wolken onder 1500 m en geen cumulonimbus

METAR: EDDT 161120Z 12011KT CAVOK 09/02 Q1035 NOSIG

Tijdstip: 12:50 (11:50 UTC)

Verwachting

Dit bericht is 50 minuten geleden gemaakt, om 11:00 UTC
Verwachting geldig van 16 om 12 UTC tot 17 om 12 UTC
Wind 9 kt uit het oosten
Zicht 10 km of meer
geen wolken onder 1500 m en geen cumulonimbus
Kans 30% :
Tijdelijke
van 17 om 03 UTC tot 17 om 09 UTC
Gebroken wolken op 1200 ft

TAF: EDDT 161100Z 1612/1712 10009KT CAVOK PROB30 TEMPO 1703/1709 BKN012

Waarnemingen en weersverwachtingen van meer dan 4000 vliegvelden (METAR en TAF).

De beschikbare stations zijn de gele en rode punten op de kaart.

Ga met uw muis naar het station om de naam te zien.

Klik dan om waarnemingen en weersverwachtingen te zien.

kaart wijzigen: klik op de groene knoppen met een zwart kruis om in te zoomen, op de groene knop met een streepje om uit te zoomen of op de groene pijlen voor aangrenzende kaarten.


METAR-TAF: